Time;durP1;ratioP1;P1;durP2;ratioP2;P2;SDS_P1;SDS_P2;PMS_P1;PMS_P2;Temp;Humidity;BMP_temperature;BMP_pressure;BME280_temperature;BME280_humidity;BME280_pressure;Samples;Min_cycle;Max_cycle;Signal;HPM_P1;HPM_P2
2022/07/25 00:00:04;;;;;;;15.90;9.10;;;20.80;99.90;;;;;;5050357;28;20449;-73
2022/07/25 00:02:30;;;;;;;14.53;9.00;;;20.70;99.90;;;;;;5050122;28;20455;-73
2022/07/25 00:04:57;;;;;;;19.83;8.70;;;20.70;99.90;;;;;;5049841;28;20453;-73
2022/07/25 00:07:24;;;;;;;14.70;8.63;;;20.60;99.90;;;;;;5049838;28;20468;-73
2022/07/25 00:09:50;;;;;;;17.07;8.47;;;20.60;99.90;;;;;;5049435;28;20448;-73
2022/07/25 00:12:19;;;;;;;16.10;8.60;;;20.60;99.90;;;;;;5049954;28;20456;-74
2022/07/25 00:14:46;;;;;;;12.50;8.70;;;20.60;99.90;;;;;;5050044;28;20503;-73
2022/07/25 00:17:13;;;;;;;13.90;8.50;;;20.60;99.90;;;;;;5049818;28;20964;-73
2022/07/25 00:19:40;;;;;;;21.50;8.90;;;20.50;99.90;;;;;;5049763;28;20534;-73
2022/07/25 00:22:07;;;;;;;27.97;9.10;;;20.50;99.90;;;;;;5050111;28;20448;-73
2022/07/25 00:24:34;;;;;;;11.97;8.57;;;20.60;99.90;;;;;;5049799;28;20502;-73
2022/07/25 00:27:01;;;;;;;9.30;8.30;;;20.40;99.90;;;;;;5049180;28;20480;-73
2022/07/25 00:29:29;;;;;;;15.07;9.17;;;20.30;99.90;;;;;;5050058;28;20478;-73
2022/07/25 00:31:56;;;;;;;12.97;8.70;;;20.30;99.90;;;;;;5049641;28;20896;-73
2022/07/25 00:34:23;;;;;;;10.07;9.00;;;20.30;99.90;;;;;;5049937;28;20445;-73
2022/07/25 00:36:49;;;;;;;10.70;8.70;;;20.30;99.90;;;;;;5052331;28;20477;-73
2022/07/25 00:39:16;;;;;;;11.30;9.17;;;20.20;99.90;;;;;;5052745;28;20511;-73
2022/07/25 00:41:43;;;;;;;17.63;8.60;;;20.20;99.90;;;;;;5053847;28;20482;-73
2022/07/25 00:44:10;;;;;;;11.60;8.20;;;20.10;99.90;;;;;;5053987;28;20535;-73
2022/07/25 00:46:39;;;;;;;14.57;8.70;;;20.10;99.90;;;;;;5053574;28;20464;-74
2022/07/25 00:49:06;;;;;;;11.03;9.17;;;20.10;99.90;;;;;;5053619;28;20445;-73
2022/07/25 00:51:33;;;;;;;12.00;9.10;;;20.10;99.90;;;;;;5053916;28;20510;-74
2022/07/25 00:54:01;;;;;;;8.67;7.60;;;20.10;99.90;;;;;;5053369;28;20460;-73
2022/07/25 00:56:27;;;;;;;11.20;8.93;;;20.10;99.90;;;;;;5053338;28;20920;-73
2022/07/25 00:58:54;;;;;;;9.00;8.10;;;20.00;99.90;;;;;;5053416;28;20506;-73
2022/07/25 01:01:21;;;;;;;11.07;8.70;;;19.90;99.90;;;;;;5053814;28;21009;-74
2022/07/25 01:03:49;;;;;;;13.33;8.40;;;20.00;99.90;;;;;;5053325;28;20453;-73
2022/07/25 01:06:16;;;;;;;10.83;8.30;;;19.90;99.90;;;;;;5053254;28;20468;-74
2022/07/25 01:08:43;;;;;;;11.93;9.17;;;19.80;99.90;;;;;;5053763;28;20448;-73
2022/07/25 01:11:10;;;;;;;11.50;9.00;;;19.80;99.90;;;;;;5053442;28;20479;-73
2022/07/25 01:13:37;;;;;;;8.73;7.83;;;19.80;99.90;;;;;;5052549;28;20835;-73
2022/07/25 01:16:04;;;;;;;11.20;8.03;;;19.80;99.90;;;;;;5052375;28;20514;-74
2022/07/25 01:18:33;;;;;;;10.13;8.70;;;19.80;99.90;;;;;;5052822;28;20468;-74
2022/07/25 01:21:01;;;;;;;9.17;8.27;;;19.80;99.90;;;;;;5052939;28;20467;-73
2022/07/25 01:23:28;;;;;;;9.97;8.70;;;19.70;99.90;;;;;;5052876;28;21027;-74
2022/07/25 01:25:54;;;;;;;15.47;9.60;;;19.70;99.90;;;;;;5052004;28;20854;-74
2022/07/25 01:28:21;;;;;;;12.97;9.93;;;19.70;99.90;;;;;;5052235;28;21022;-74
2022/07/25 01:30:48;;;;;;;9.33;8.43;;;19.70;99.90;;;;;;5052725;28;20464;-74
2022/07/25 01:33:16;;;;;;;12.23;8.77;;;19.70;99.90;;;;;;5052818;28;20502;-74
2022/07/25 01:35:43;;;;;;;14.97;9.63;;;19.70;99.90;;;;;;5049057;28;20451;-74
2022/07/25 01:38:11;;;;;;;14.80;9.70;;;19.60;99.90;;;;;;5052155;28;20546;-74
2022/07/25 01:40:38;;;;;;;13.63;9.60;;;19.50;99.90;;;;;;5052494;28;20506;-74
2022/07/25 01:43:05;;;;;;;14.93;9.50;;;19.40;99.90;;;;;;5052318;28;20460;-74
2022/07/25 01:45:32;;;;;;;12.47;9.40;;;19.30;99.90;;;;;;5052310;28;20456;-74
2022/07/25 01:47:58;;;;;;;12.97;10.27;;;19.30;99.90;;;;;;5051702;28;20980;-75
2022/07/25 01:50:26;;;;;;;18.57;10.00;;;19.30;99.90;;;;;;5052393;28;20452;-74
2022/07/25 01:52:53;;;;;;;15.40;10.70;;;19.30;99.90;;;;;;5052512;28;20522;-74
2022/07/25 01:55:21;;;;;;;12.90;9.07;;;19.30;99.90;;;;;;5051787;28;20518;-74
2022/07/25 01:57:47;;;;;;;11.10;9.90;;;19.30;99.90;;;;;;5051768;28;20470;-74
2022/07/25 02:00:15;;;;;;;11.27;9.20;;;19.30;99.90;;;;;;5051033;28;20817;-74
2022/07/25 02:02:43;;;;;;;11.30;9.37;;;19.30;99.90;;;;;;5049636;28;20956;-74
2022/07/25 02:05:11;;;;;;;10.60;9.17;;;19.40;99.90;;;;;;5051536;28;20453;-74
2022/07/25 02:07:39;;;;;;;11.63;9.63;;;19.30;99.90;;;;;;5051410;28;20472;-74
2022/07/25 02:10:07;;;;;;;11.60;9.07;;;19.30;99.90;;;;;;5051838;28;20579;-74
2022/07/25 02:12:35;;;;;;;13.87;9.60;;;19.40;99.90;;;;;;5051957;28;20487;-74
2022/07/25 02:15:02;;;;;;;10.90;9.10;;;19.30;99.90;;;;;;5051946;28;20468;-74
2022/07/25 02:17:29;;;;;;;13.13;8.73;;;19.30;99.90;;;;;;5051315;28;20450;-74
2022/07/25 02:19:55;;;;;;;11.23;10.03;;;19.30;99.90;;;;;;5051822;28;20460;-74
2022/07/25 02:22:22;;;;;;;9.63;8.63;;;19.30;99.90;;;;;;5051218;28;20495;-74
2022/07/25 02:24:48;;;;;;;13.43;9.60;;;19.30;99.90;;;;;;5051552;28;20490;-74
2022/07/25 02:27:15;;;;;;;10.70;9.03;;;19.30;99.90;;;;;;5048990;28;20529;-74
2022/07/25 02:29:43;;;;;;;10.00;8.47;;;19.30;99.90;;;;;;5047796;28;20448;-74
2022/07/25 02:32:10;;;;;;;12.60;9.30;;;19.30;99.90;;;;;;5051032;28;20448;-74
2022/07/25 02:34:36;;;;;;;10.60;8.90;;;19.30;99.90;;;;;;5051003;28;20822;-74
2022/07/25 02:37:03;;;;;;;12.47;9.20;;;19.20;99.90;;;;;;5051324;28;20520;-74
2022/07/25 02:39:30;;;;;;;10.97;9.40;;;19.20;99.90;;;;;;5051324;28;20538;-74
2022/07/25 02:41:56;;;;;;;9.80;8.80;;;19.10;99.90;;;;;;5051717;28;20819;-74
2022/07/25 02:44:23;;;;;;;12.07;8.67;;;19.10;99.90;;;;;;5051457;28;20819;-74
2022/07/25 02:46:51;;;;;;;16.63;8.97;;;19.10;99.90;;;;;;5051077;28;20514;-74
2022/07/25 02:49:17;;;;;;;10.27;9.27;;;19.10;99.90;;;;;;5050926;28;20445;-74
2022/07/25 02:51:44;;;;;;;10.97;8.40;;;19.00;99.90;;;;;;5051660;28;20452;-73
2022/07/25 02:54:11;;;;;;;10.77;9.63;;;18.90;99.90;;;;;;5047698;28;20444;-74
2022/07/25 02:56:37;;;;;;;10.63;9.53;;;18.90;99.90;;;;;;5051527;28;20472;-74
2022/07/25 02:59:04;;;;;;;12.80;10.60;;;18.80;99.90;;;;;;5050867;28;20629;-74
2022/07/25 03:01:31;;;;;;;12.73;10.20;;;18.80;99.90;;;;;;5050873;28;20807;-74
2022/07/25 03:03:59;;;;;;;12.03;9.20;;;18.80;99.90;;;;;;5051063;28;20865;-74
2022/07/25 03:06:25;;;;;;;14.40;10.40;;;18.80;99.90;;;;;;5050544;28;20874;-74
2022/07/25 03:08:52;;;;;;;13.37;10.40;;;18.70;99.90;;;;;;5051034;28;20595;-74
2022/07/25 03:11:19;;;;;;;12.20;10.20;;;18.70;99.90;;;;;;5050483;28;20485;-74
2022/07/25 03:13:45;;;;;;;13.20;9.60;;;18.70;99.90;;;;;;5050440;28;20423;-74
2022/07/25 03:16:12;;;;;;;14.73;9.90;;;18.60;99.90;;;;;;5050815;28;20511;-74
2022/07/25 03:18:39;;;;;;;13.77;9.70;;;18.60;99.90;;;;;;5050475;28;20458;-74
2022/07/25 03:21:07;;;;;;;14.70;9.63;;;18.70;99.90;;;;;;5050600;28;20438;-74
2022/07/25 03:23:34;;;;;;;11.70;10.03;;;18.60;99.90;;;;;;5050933;28;20456;-74
2022/07/25 03:26:00;;;;;;;12.53;10.30;;;18.60;99.90;;;;;;5049908;28;20844;-74
2022/07/25 03:28:27;;;;;;;14.87;10.43;;;18.60;99.90;;;;;;5050639;28;20990;-73
2022/07/25 03:30:54;;;;;;;12.37;10.27;;;18.60;99.90;;;;;;5050308;28;20449;-73
2022/07/25 03:33:21;;;;;;;14.23;11.13;;;18.60;99.90;;;;;;5050589;28;20507;-73
2022/07/25 03:35:48;;;;;;;13.57;10.47;;;18.60;99.90;;;;;;5049932;28;20957;-73
2022/07/25 03:38:16;;;;;;;11.80;10.40;;;18.60;99.90;;;;;;5050327;28;20888;-73
2022/07/25 03:40:42;;;;;;;13.53;11.53;;;18.60;99.90;;;;;;5047395;28;20449;-73
2022/07/25 03:43:09;;;;;;;18.53;11.13;;;18.70;99.90;;;;;;5050630;28;20448;-73
2022/07/25 03:45:36;;;;;;;16.97;10.90;;;18.60;99.90;;;;;;5049916;28;21057;-73
2022/07/25 03:48:03;;;;;;;15.10;9.77;;;18.70;99.90;;;;;;5050727;28;20476;-74
2022/07/25 03:50:29;;;;;;;16.33;10.63;;;18.60;99.90;;;;;;5050409;28;20445;-74
2022/07/25 03:52:56;;;;;;;12.33;10.57;;;18.60;99.90;;;;;;5050187;28;20468;-74
2022/07/25 03:55:24;;;;;;;11.90;9.60;;;18.60;99.90;;;;;;5050486;28;20449;-74
2022/07/25 03:57:51;;;;;;;13.27;10.37;;;18.60;99.90;;;;;;5050623;28;20483;-75
2022/07/25 04:00:17;;;;;;;12.23;10.40;;;18.50;99.90;;;;;;5050390;28;20538;-74
2022/07/25 04:02:44;;;;;;;13.47;11.03;;;18.50;99.90;;;;;;5050762;28;20498;-75
2022/07/25 04:05:11;;;;;;;13.20;10.20;;;18.40;99.90;;;;;;5050587;28;20502;-71
2022/07/25 04:07:38;;;;;;;14.97;10.97;;;18.40;99.90;;;;;;5049802;28;20450;-72
2022/07/25 04:10:06;;;;;;;13.07;10.80;;;18.40;99.90;;;;;;5052901;28;20427;-72
2022/07/25 04:12:34;;;;;;;12.60;10.00;;;18.40;99.90;;;;;;5054487;28;20456;-72
2022/07/25 04:15:01;;;;;;;12.83;9.43;;;18.50;99.90;;;;;;5050317;28;20518;-72
2022/07/25 04:17:28;;;;;;;13.07;9.97;;;18.70;99.90;;;;;;5052988;28;20827;-72
2022/07/25 04:19:54;;;;;;;10.97;9.33;;;18.80;99.90;;;;;;5053773;28;20510;-72
2022/07/25 04:22:21;;;;;;;12.30;9.83;;;18.90;99.90;;;;;;5053570;28;20852;-72
2022/07/25 04:24:48;;;;;;;13.77;11.00;;;19.00;99.90;;;;;;5054355;28;20445;-72
2022/07/25 04:27:14;;;;;;;14.43;9.97;;;19.10;99.90;;;;;;5053187;28;20464;-72
2022/07/25 04:29:42;;;;;;;15.63;11.13;;;19.10;99.90;;;;;;5050049;28;20444;-72
2022/07/25 04:32:09;;;;;;;15.83;10.00;;;19.20;99.90;;;;;;5053207;28;21196;-72
2022/07/25 04:34:36;;;;;;;15.83;10.87;;;19.20;99.90;;;;;;5053674;28;20831;-72
2022/07/25 04:37:02;;;;;;;11.00;9.90;;;19.20;99.90;;;;;;5052928;28;21043;-72
2022/07/25 04:39:29;;;;;;;10.73;9.63;;;19.20;99.90;;;;;;5053875;28;20480;-72
2022/07/25 04:41:56;;;;;;;15.70;10.47;;;19.20;99.90;;;;;;5053509;28;20456;-72
2022/07/25 04:44:23;;;;;;;14.17;10.20;;;19.20;99.90;;;;;;5053270;28;20482;-72
2022/07/25 04:46:51;;;;;;;13.73;9.90;;;19.20;99.90;;;;;;5053476;28;20471;-70
2022/07/25 04:49:17;;;;;;;16.23;10.17;;;19.20;99.90;;;;;;5053079;28;20506;-70
2022/07/25 04:51:44;;;;;;;12.40;10.80;;;19.20;99.90;;;;;;5052969;28;20498;-71
2022/07/25 04:54:11;;;;;;;13.80;10.80;;;19.20;99.90;;;;;;5051651;28;20449;-71
2022/07/25 04:56:37;;;;;;;16.77;10.33;;;19.20;99.90;;;;;;5052993;28;20475;-71
2022/07/25 04:59:05;;;;;;;16.00;11.80;;;19.20;99.90;;;;;;5052725;28;20480;-71
2022/07/25 05:01:32;;;;;;;13.47;10.60;;;19.30;99.90;;;;;;5052389;28;20475;-71
2022/07/25 05:03:59;;;;;;;14.40;10.93;;;19.40;99.90;;;;;;5053271;28;20452;-72
2022/07/25 05:06:26;;;;;;;15.47;11.23;;;19.50;99.90;;;;;;5052399;28;20468;-71
2022/07/25 05:08:53;;;;;;;13.63;10.67;;;19.60;99.90;;;;;;5052797;28;20456;-72
2022/07/25 05:11:19;;;;;;;15.13;10.77;;;19.70;99.90;;;;;;5051918;28;20452;-72
2022/07/25 05:13:46;;;;;;;13.73;10.97;;;20.00;99.90;;;;;;5051229;28;20453;-72
2022/07/25 05:16:13;;;;;;;15.40;11.07;;;20.00;99.90;;;;;;5051200;28;20452;-72
2022/07/25 05:18:39;;;;;;;13.83;10.93;;;20.00;99.90;;;;;;5052754;28;20448;-72
2022/07/25 05:21:10;;;;;;;13.67;10.70;;;20.10;99.90;;;;;;5051287;28;20992;-72
2022/07/25 05:23:36;;;;;;;16.43;10.43;;;20.20;99.90;;;;;;5052743;28;20495;-73
2022/07/25 05:26:03;;;;;;;16.27;10.90;;;20.30;99.90;;;;;;5052238;28;20449;-71
2022/07/25 05:28:30;;;;;;;14.63;10.90;;;20.40;99.90;;;;;;5052335;28;20497;-71
2022/07/25 05:30:56;;;;;;;16.80;10.93;;;20.50;99.90;;;;;;5052306;28;20465;-71
2022/07/25 05:33:23;;;;;;;14.87;10.87;;;20.50;99.90;;;;;;5052861;28;20540;-71
2022/07/25 05:35:50;;;;;;;14.83;10.70;;;20.70;99.90;;;;;;5052576;28;20455;-70
2022/07/25 05:38:18;;;;;;;18.33;10.77;;;20.70;99.90;;;;;;5051355;28;20472;-71
2022/07/25 05:40:45;;;;;;;17.80;10.90;;;20.80;99.90;;;;;;5052640;28;20484;-71
2022/07/25 05:43:11;;;;;;;18.10;10.80;;;20.80;99.90;;;;;;5051471;28;20452;-70
2022/07/25 05:45:38;;;;;;;13.33;10.67;;;20.90;99.90;;;;;;5052896;28;20444;-70
2022/07/25 05:48:05;;;;;;;12.73;10.60;;;21.10;99.90;;;;;;5051932;28;20476;-72
2022/07/25 05:50:32;;;;;;;15.83;11.80;;;21.20;99.90;;;;;;5052302;28;20444;-70
2022/07/25 05:52:58;;;;;;;16.10;11.50;;;21.40;99.90;;;;;;5051414;28;20537;-70
2022/07/25 05:55:26;;;;;;;22.10;11.23;;;21.60;99.90;;;;;;5049833;28;21074;-70
2022/07/25 05:57:53;;;;;;;13.70;11.07;;;21.70;99.90;;;;;;5049816;28;20578;-70
2022/07/25 06:00:20;;;;;;;14.43;10.37;;;21.90;99.90;;;;;;5052447;28;20480;-70
2022/07/25 06:02:46;;;;;;;13.10;11.30;;;22.00;99.90;;;;;;5051726;28;20498;-70
2022/07/25 06:05:13;;;;;;;15.17;10.60;;;22.20;99.90;;;;;;5047357;28;20499;-71
2022/07/25 06:07:40;;;;;;;11.30;9.70;;;22.40;99.90;;;;;;5046893;28;20500;-71
2022/07/25 06:10:07;;;;;;;15.23;10.50;;;22.60;99.90;;;;;;5047469;28;20942;-71
2022/07/25 06:12:35;;;;;;;14.90;11.03;;;22.70;99.90;;;;;;5046647;28;21014;-70
2022/07/25 06:15:02;;;;;;;15.60;10.20;;;22.80;99.90;;;;;;5046675;28;20456;-72
2022/07/25 06:17:28;;;;;;;16.40;11.77;;;22.80;99.90;;;;;;5047641;28;20550;-70
2022/07/25 06:19:55;;;;;;;22.17;12.00;;;22.90;99.90;;;;;;5047209;28;20480;-70
2022/07/25 06:22:21;;;;;;;16.87;11.00;;;23.00;99.90;;;;;;5047693;28;20460;-70
2022/07/25 06:24:48;;;;;;;15.90;11.07;;;23.20;99.90;;;;;;5048061;28;20911;-71
2022/07/25 06:27:15;;;;;;;14.10;11.83;;;23.30;99.90;;;;;;5047061;28;20507;-69
2022/07/25 06:29:43;;;;;;;14.20;11.77;;;23.50;99.90;;;;;;5048114;28;20498;-69
2022/07/25 06:32:09;;;;;;;11.00;9.90;;;23.70;99.90;;;;;;5047426;28;20514;-69
2022/07/25 06:34:36;;;;;;;14.80;11.37;;;23.90;99.90;;;;;;5046397;28;20460;-70
2022/07/25 06:37:03;;;;;;;16.60;11.50;;;24.00;99.90;;;;;;5047203;28;20474;-69
2022/07/25 06:39:29;;;;;;;11.10;9.87;;;24.10;99.90;;;;;;5047822;28;20832;-68
2022/07/25 06:41:58;;;;;;;21.50;11.80;;;24.10;99.90;;;;;;5047169;28;20677;-68
2022/07/25 06:44:25;;;;;;;15.10;10.50;;;24.20;99.90;;;;;;5047993;28;20536;-69
2022/07/25 06:46:53;;;;;;;12.67;10.53;;;24.40;99.90;;;;;;5046004;28;20526;-68
2022/07/25 06:49:19;;;;;;;11.77;9.63;;;24.50;99.90;;;;;;5046978;28;20506;-68
2022/07/25 06:51:46;;;;;;;13.47;10.53;;;24.70;99.90;;;;;;5046506;28;21025;-68
2022/07/25 06:54:14;;;;;;;13.37;10.70;;;24.90;99.90;;;;;;5046745;28;20510;-68
2022/07/25 06:56:41;;;;;;;14.30;10.47;;;24.90;99.90;;;;;;5046075;28;20496;-68
2022/07/25 06:59:07;;;;;;;17.60;10.60;;;24.90;99.90;;;;;;5046929;28;20456;-69
2022/07/25 07:01:34;;;;;;;13.23;9.73;;;24.80;99.90;;;;;;5046663;28;20594;-70
2022/07/25 07:04:02;;;;;;;15.03;10.17;;;24.90;99.90;;;;;;5046777;28;20911;-70
2022/07/25 07:06:29;;;;;;;14.60;9.60;;;25.00;99.90;;;;;;5045742;28;20480;-71
2022/07/25 07:08:56;;;;;;;13.10;10.60;;;25.10;99.90;;;;;;5045894;28;20459;-72
2022/07/25 07:11:23;;;;;;;14.13;10.47;;;25.30;99.90;;;;;;5046405;28;20445;-72
2022/07/25 07:13:49;;;;;;;13.10;10.70;;;25.50;99.90;;;;;;5045509;28;20456;-72
2022/07/25 07:16:16;;;;;;;12.20;10.60;;;25.60;99.90;;;;;;5044970;28;20476;-70
2022/07/25 07:18:43;;;;;;;11.83;10.47;;;25.60;99.90;;;;;;5045690;28;20531;-71
2022/07/25 07:21:11;;;;;;;19.87;10.60;;;25.50;99.90;;;;;;5045461;28;20526;-71
2022/07/25 07:23:37;;;;;;;14.63;11.30;;;25.50;99.90;;;;;;5046483;28;20456;-70
2022/07/25 07:26:04;;;;;;;12.27;10.67;;;25.30;99.90;;;;;;5045641;28;20448;-71
2022/07/25 07:28:30;;;;;;;19.13;10.57;;;25.40;99.90;;;;;;5045261;28;20444;-70
2022/07/25 07:30:57;;;;;;;13.23;10.47;;;25.50;99.90;;;;;;5046756;28;20445;-70
2022/07/25 07:33:24;;;;;;;14.07;10.50;;;25.70;99.90;;;;;;5046320;28;20569;-70
2022/07/25 07:35:50;;;;;;;12.60;10.17;;;25.90;99.90;;;;;;5045488;28;20479;-70
2022/07/25 07:38:18;;;;;;;16.33;11.10;;;25.90;99.90;;;;;;5046392;28;20881;-70
2022/07/25 07:40:45;;;;;;;18.60;11.03;;;26.20;99.90;;;;;;5045857;28;21050;-69
2022/07/25 07:43:12;;;;;;;14.53;9.90;;;26.30;99.90;;;;;;5045189;28;21057;-70
2022/07/25 07:45:39;;;;;;;16.13;9.90;;;26.40;99.90;;;;;;5047048;28;20927;-70
2022/07/25 07:48:07;;;;;;;19.60;10.50;;;26.50;99.90;;;;;;5045476;28;20476;-70
2022/07/25 07:50:33;;;;;;;18.73;10.13;;;26.70;99.90;;;;;;5046368;28;20441;-70
2022/07/25 07:53:00;;;;;;;12.73;10.00;;;26.80;99.90;;;;;;5046486;28;20586;-70
2022/07/25 07:55:44;;;;;;;13.13;10.03;;;26.90;99.90;;;;;;5044587;28;20455;-70
2022/07/25 07:58:11;;;;;;;13.23;10.10;;;27.00;99.90;;;;;;5046298;28;20472;-70
2022/07/25 08:00:39;;;;;;;10.47;9.37;;;27.10;99.90;;;;;;5045368;28;20480;-69
2022/07/25 08:03:07;;;;;;;10.40;9.40;;;27.20;99.90;;;;;;5045424;28;21131;-70
2022/07/25 08:05:37;;;;;;;10.90;9.40;;;27.20;99.90;;;;;;5045765;28;20453;-69
2022/07/25 08:08:05;;;;;;;12.05;8.63;;;27.20;99.90;;;;;;5030388;28;20445;-76
2022/07/25 08:10:35;;;;;;;11.67;9.47;;;27.40;99.90;;;;;;5025698;28;20209;-77
2022/07/25 08:13:11;;;;;;;13.43;9.50;;;27.70;99.90;;;;;;5025939;28;21593;-76
2022/07/25 08:15:37;;;;;;;16.93;10.07;;;28.00;99.90;;;;;;5024011;28;20449;-77
2022/07/25 08:18:05;;;;;;;12.60;9.70;;;28.20;99.90;;;;;;5025584;28;21105;-76
2022/07/25 08:20:32;;;;;;;11.50;9.50;;;28.30;99.90;;;;;;5025051;28;20477;-77
2022/07/25 08:22:58;;;;;;;11.70;9.50;;;28.40;99.90;;;;;;5025595;28;20870;-76
2022/07/25 08:25:26;;;;;;;13.57;9.97;;;28.50;99.90;;;;;;5024988;28;20579;-77
2022/07/25 08:27:54;;;;;;;11.80;9.53;;;28.70;99.90;;;;;;5025407;28;20477;-76
2022/07/25 08:30:21;;;;;;;11.87;9.83;;;28.90;99.90;;;;;;5025171;28;20441;-77
2022/07/25 08:32:52;;;;;;;11.20;9.23;;;29.00;99.90;;;;;;5025428;28;20454;-77
2022/07/25 08:35:20;;;;;;;10.45;8.98;;;29.20;99.90;;;;;;5024431;28;20520;-76
2022/07/25 08:37:47;;;;;;;12.10;10.00;;;29.50;99.90;;;;;;5025161;28;20214;-77
2022/07/25 08:40:15;;;;;;;10.90;9.80;;;29.40;99.90;;;;;;5024868;28;20527;-76
2022/07/25 08:42:43;;;;;;;11.13;8.90;;;29.50;99.90;;;;;;5024912;28;20457;-77
2022/07/25 08:45:13;;;;;;;11.67;8.93;;;29.50;99.90;;;;;;5025265;28;20446;-76
2022/07/25 08:47:40;;;;;;;16.03;9.13;;;29.80;99.90;;;;;;5025118;28;20563;-76
2022/07/25 08:50:09;;;;;;;11.50;9.77;;;29.90;99.90;;;;;;5026972;28;20539;-75
2022/07/25 08:52:36;;;;;;;13.00;9.80;;;30.00;99.90;;;;;;5024056;28;20465;-74
2022/07/25 08:55:04;;;;;;;13.07;10.27;;;30.10;99.90;;;;;;5025137;28;20441;-75
2022/07/25 08:57:30;;;;;;;16.30;9.20;;;30.30;99.90;;;;;;5027091;28;20470;-75
2022/07/25 08:59:58;;;;;;;12.93;8.90;;;30.50;99.90;;;;;;5029231;28;20493;-75
2022/07/25 09:02:27;;;;;;;13.13;9.70;;;30.80;99.90;;;;;;5028515;28;20495;-75
2022/07/25 09:04:54;;;;;;;11.73;9.20;;;31.00;99.90;;;;;;5028176;28;21016;-75
2022/07/25 09:07:32;;;;;;;12.63;9.47;;;31.00;99.90;;;;;;5028595;28;20461;-75
2022/07/25 09:09:59;;;;;;;12.93;9.60;;;31.00;99.90;;;;;;5028585;28;20945;-75
2022/07/25 09:12:27;;;;;;;15.63;9.33;;;31.20;99.90;;;;;;5028743;28;20450;-75
2022/07/25 09:14:54;;;;;;;20.63;10.00;;;31.40;99.90;;;;;;5028974;28;20457;-75
2022/07/25 09:17:21;;;;;;;12.43;9.23;;;31.70;99.90;;;;;;5027955;28;20473;-75
2022/07/25 09:19:53;;;;;;;10.10;9.10;;;31.90;99.90;;;;;;5029239;28;20450;-75
2022/07/25 09:22:20;;;;;;;13.87;9.90;;;32.10;99.90;;;;;;5028954;28;20469;-75
2022/07/25 09:24:47;;;;;;;10.33;9.33;;;32.20;99.90;;;;;;5028486;28;20457;-75
2022/07/25 09:27:14;;;;;;;12.07;9.07;;;32.20;99.90;;;;;;5028427;28;20888;-75
2022/07/25 09:29:42;;;;;;;9.40;8.37;;;32.40;99.90;;;;;;5028489;28;20472;-75
2022/07/25 09:32:17;;;;;;;12.93;9.40;;;32.30;99.90;;;;;;5028373;28;20453;-76
2022/07/25 09:34:47;;;;;;;11.73;9.90;;;32.30;99.90;;;;;;5029056;28;20456;-76
2022/07/25 09:37:16;;;;;;;14.13;9.97;;;32.20;99.90;;;;;;5027898;28;20531;-76
2022/07/25 09:39:45;;;;;;;10.40;9.30;;;32.10;99.90;;;;;;5028981;28;20508;-76
2022/07/25 09:42:16;;;;;;;17.87;9.97;;;31.90;99.90;;;;;;5024790;28;20501;-75
2022/07/25 09:44:43;;;;;;;11.00;9.10;;;31.70;99.90;;;;;;5027563;28;20511;-75
2022/07/25 09:47:11;;;;;;;12.10;9.20;;;31.60;99.90;;;;;;5029487;28;20492;-76
2022/07/25 09:49:41;;;;;;;11.60;9.40;;;31.80;99.90;;;;;;5026336;28;20535;-75
2022/07/25 09:52:08;;;;;;;11.27;9.50;;;31.90;99.90;;;;;;5026606;28;20512;-75
2022/07/25 09:54:36;;;;;;;12.10;9.60;;;31.90;99.90;;;;;;5027631;28;20523;-76
2022/07/25 09:57:03;;;;;;;12.30;9.10;;;31.80;99.90;;;;;;5026775;28;20553;-75
2022/07/25 09:59:29;;;;;;;11.73;9.53;;;31.70;99.90;;;;;;5027684;28;21030;-75
2022/07/25 10:02:07;;;;;;;10.70;9.60;;;31.70;99.90;;;;;;5027533;28;20485;-76
2022/07/25 10:04:44;;;;;;;12.87;9.87;;;31.70;99.90;;;;;;5027189;28;20860;-75
2022/07/25 10:07:13;;;;;;;11.40;10.10;;;31.80;99.90;;;;;;5027352;28;20487;-76
2022/07/25 10:09:44;;;;;;;14.17;9.10;;;31.60;99.90;;;;;;5026330;28;20865;-75
2022/07/25 10:12:13;;;;;;;12.90;9.70;;;31.60;99.90;;;;;;5027111;28;20445;-76
2022/07/25 10:14:40;;;;;;;10.60;9.13;;;31.70;99.90;;;;;;5028166;28;20460;-76
2022/07/25 10:17:08;;;;;;;12.33;10.00;;;31.70;99.90;;;;;;5026812;28;20523;-77
2022/07/25 10:19:44;;;;;;;11.77;9.70;;;31.60;99.90;;;;;;5027600;28;20519;-77
2022/07/25 10:22:11;;;;;;;10.37;8.20;;;31.60;99.90;;;;;;5027491;28;20855;-76
2022/07/25 10:24:39;;;;;;;10.13;9.00;;;31.60;99.90;;;;;;5027273;28;20445;-75
2022/07/25 10:27:10;;;;;;;15.43;8.40;;;31.90;99.90;;;;;;5028008;28;20912;-75
2022/07/25 10:29:37;;;;;;;11.27;9.73;;;32.00;99.90;;;;;;5027416;28;20460;-77
2022/07/25 10:32:08;;;;;;;10.07;8.57;;;32.10;99.90;;;;;;5026728;28;20499;-77
2022/07/25 10:34:36;;;;;;;14.63;9.40;;;32.20;99.90;;;;;;5028237;28;20616;-77
2022/07/25 10:37:10;;;;;;;10.63;8.60;;;32.40;99.90;;;;;;5025822;28;20564;-76
2022/07/25 10:39:38;;;;;;;9.77;8.33;;;32.80;99.90;;;;;;5027124;28;20444;-78
2022/07/25 10:42:05;;;;;;;13.13;9.10;;;33.30;99.50;;;;;;5027189;28;20485;-77
2022/07/25 10:44:42;;;;;;;9.47;7.90;;;33.60;98.70;;;;;;5027173;28;20503;-77
2022/07/25 10:47:10;;;;;;;13.43;9.63;;;33.70;97.90;;;;;;5026563;28;20481;-75
2022/07/25 10:49:39;;;;;;;10.27;7.80;;;33.80;97.40;;;;;;5027030;28;20446;-78
2022/07/25 10:52:06;;;;;;;11.60;8.67;;;33.80;96.40;;;;;;5024481;28;20477;-77
2022/07/25 10:54:34;;;;;;;7.93;7.00;;;33.90;97.30;;;;;;5027783;28;20503;-76
2022/07/25 10:57:01;;;;;;;6.73;6.03;;;34.10;94.70;;;;;;5026547;28;20478;-76
2022/07/25 10:59:30;;;;;;;7.23;5.97;;;34.20;93.30;;;;;;5026410;28;20514;-77
2022/07/25 11:01:59;;;;;;;7.37;6.67;;;34.30;92.00;;;;;;5027187;28;20477;-75
2022/07/25 11:04:26;;;;;;;11.30;6.40;;;34.40;91.10;;;;;;5026958;28;20507;-77
2022/07/25 11:06:53;;;;;;;9.83;6.43;;;34.20;90.80;;;;;;5024179;28;20992;-76
2022/07/25 11:09:21;;;;;;;6.50;5.90;;;34.20;91.10;;;;;;5027089;28;20535;-75
2022/07/25 11:11:50;;;;;;;6.77;6.13;;;34.20;90.50;;;;;;5026387;28;20564;-75
2022/07/25 11:14:20;;;;;;;8.60;6.40;;;34.40;90.60;;;;;;5026779;28;20813;-76
2022/07/25 11:16:49;;;;;;;7.27;6.40;;;34.40;90.90;;;;;;5025839;28;20474;-75
2022/07/25 11:19:18;;;;;;;8.20;6.10;;;34.60;90.50;;;;;;5025669;28;20445;-74
2022/07/25 11:21:46;;;;;;;6.60;5.90;;;34.70;89.50;;;;;;5027434;28;20476;-78
2022/07/25 11:24:13;;;;;;;13.98;6.78;;;34.80;89.80;;;;;;5026903;28;20519;-75
2022/07/25 11:26:48;;;;;;;9.95;6.68;;;34.90;90.00;;;;;;5025242;28;20457;-75
2022/07/25 11:29:19;;;;;;;7.90;7.13;;;34.90;90.20;;;;;;5027286;28;20740;-76
2022/07/25 11:31:52;;;;;;;9.67;6.07;;;35.00;87.50;;;;;;5024747;28;20482;-75
2022/07/25 11:34:23;;;;;;;11.47;6.77;;;35.00;88.50;;;;;;5026376;28;20461;-75
2022/07/25 11:36:51;;;;;;;7.93;7.13;;;35.20;89.70;;;;;;5025473;28;21068;-69
2022/07/25 11:39:18;;;;;;;8.00;7.13;;;35.30;88.90;;;;;;5025070;28;20977;-69
2022/07/25 11:41:45;;;;;;;10.93;6.90;;;35.20;88.30;;;;;;5026444;28;20489;-72
2022/07/25 11:44:11;;;;;;;12.90;7.37;;;35.30;90.10;;;;;;5025710;28;20454;-70
2022/07/25 11:46:43;;;;;;;10.20;8.03;;;35.50;89.50;;;;;;5024567;28;21179;-70
2022/07/25 11:49:10;;;;;;;13.13;7.43;;;35.30;89.50;;;;;;5026181;28;20487;-69
2022/07/25 11:51:40;;;;;;;9.03;7.60;;;35.00;90.00;;;;;;5025802;28;20450;-70
2022/07/25 11:54:12;;;;;;;9.00;7.50;;;34.70;90.40;;;;;;5026185;28;20540;-72
2022/07/25 11:56:39;;;;;;;15.63;7.07;;;34.50;90.80;;;;;;5025346;28;20477;-70
2022/07/25 11:59:06;;;;;;;8.33;7.20;;;34.30;90.50;;;;;;5025056;28;20505;-68
2022/07/25 12:01:35;;;;;;;8.20;7.50;;;34.40;90.40;;;;;;5025750;28;20480;-68
2022/07/25 12:04:13;;;;;;;8.83;8.00;;;34.40;90.40;;;;;;5026462;28;20461;-74
2022/07/25 12:06:41;;;;;;;8.13;7.43;;;34.40;90.30;;;;;;5024341;28;21126;-73
2022/07/25 12:09:16;;;;;;;8.80;8.00;;;34.40;90.30;;;;;;5025512;28;20515;-74
2022/07/25 12:11:42;;;;;;;9.23;7.60;;;34.30;90.50;;;;;;5026044;28;20445;-70
2022/07/25 12:14:10;;;;;;;9.30;7.27;;;34.20;91.00;;;;;;5025047;28;21023;-70
2022/07/25 12:16:37;;;;;;;9.47;6.80;;;34.20;91.20;;;;;;5026021;28;20481;-69
2022/07/25 12:19:04;;;;;;;9.10;6.00;;;34.20;90.90;;;;;;5024215;28;20457;-70
2022/07/25 12:21:31;;;;;;;8.00;7.17;;;34.10;90.70;;;;;;5025700;28;20481;-70
2022/07/25 12:23:59;;;;;;;8.80;6.87;;;34.20;90.80;;;;;;5026106;28;20441;-73
2022/07/25 12:26:26;;;;;;;11.03;6.77;;;34.20;91.00;;;;;;5025425;28;20476;-73
2022/07/25 12:28:52;;;;;;;9.10;7.03;;;34.20;90.90;;;;;;5025892;28;20453;-75
2022/07/25 12:31:19;;;;;;;9.20;7.10;;;34.00;91.40;;;;;;5028901;28;20438;-74
2022/07/25 12:33:47;;;;;;;8.00;7.30;;;33.90;91.50;;;;;;5029320;28;20461;-74
2022/07/25 12:36:14;;;;;;;8.33;6.37;;;34.00;91.60;;;;;;5030056;28;20989;-74